sensor_id;sensor_type;location;lat;lon;timestamp;pressure;altitude;pressure_sealevel;temperature;humidity
22206;BME280;11272;50.104;8.754;2023-04-02T00:07:49;99741.19;;;10.63;100.00
22206;BME280;11272;50.104;8.754;2023-04-02T00:15:31;99749.97;;;10.63;100.00
22206;BME280;11272;50.104;8.754;2023-04-02T00:17:58;99759.78;;;10.61;100.00
22206;BME280;11272;50.104;8.754;2023-04-02T00:20:25;99766.75;;;10.65;100.00
22206;BME280;11272;50.104;8.754;2023-04-02T00:22:52;99764.13;;;10.64;100.00
22206;BME280;11272;50.104;8.754;2023-04-02T00:25:19;99765.91;;;10.63;100.00
22206;BME280;11272;50.104;8.754;2023-04-02T00:27:44;99772.97;;;10.64;100.00
22206;BME280;11272;50.104;8.754;2023-04-02T00:30:12;99775.63;;;10.64;100.00
22206;BME280;11272;50.104;8.754;2023-04-02T00:32:38;99775.53;;;10.67;100.00
22206;BME280;11272;50.104;8.754;2023-04-02T00:35:12;99776.28;;;10.71;100.00
22206;BME280;11272;50.104;8.754;2023-04-02T00:37:42;99779.81;;;10.71;100.00
22206;BME280;11272;50.104;8.754;2023-04-02T00:40:29;99782.59;;;10.68;100.00
22206;BME280;11272;50.104;8.754;2023-04-02T00:42:59;99786.94;;;10.69;100.00
22206;BME280;11272;50.104;8.754;2023-04-02T00:45:31;99780.72;;;10.70;100.00
22206;BME280;11272;50.104;8.754;2023-04-02T00:48:14;99785.13;;;10.71;100.00
22206;BME280;11272;50.104;8.754;2023-04-02T00:50:45;99787.75;;;10.73;100.00
22206;BME280;11272;50.104;8.754;2023-04-02T00:53:27;99789.41;;;10.75;100.00
22206;BME280;11272;50.104;8.754;2023-04-02T00:55:55;99787.66;;;10.74;100.00
22206;BME280;11272;50.104;8.754;2023-04-02T00:58:29;99785.84;;;10.76;100.00
22206;BME280;11272;50.104;8.754;2023-04-02T01:00:57;99786.69;;;10.78;100.00
22206;BME280;11272;50.104;8.754;2023-04-02T01:03:29;99784.03;;;10.78;100.00
22206;BME280;11272;50.104;8.754;2023-04-02T01:25:06;99807.09;;;10.76;100.00
22206;BME280;11272;50.104;8.754;2023-04-02T01:27:46;99807.09;;;10.76;100.00
22206;BME280;11272;50.104;8.754;2023-04-02T01:30:14;99813.31;;;10.75;100.00
22206;BME280;11272;50.104;8.754;2023-04-02T01:32:41;99821.44;;;10.71;100.00
22206;BME280;11272;50.104;8.754;2023-04-02T01:35:08;99821.59;;;10.66;100.00
22206;BME280;11272;50.104;8.754;2023-04-02T01:38:08;99827.84;;;10.64;100.00
22206;BME280;11272;50.104;8.754;2023-04-02T01:40:46;99826.06;;;10.64;100.00
22206;BME280;11272;50.104;8.754;2023-04-02T01:43:23;99827.84;;;10.64;100.00
22206;BME280;11272;50.104;8.754;2023-04-02T01:45:51;99835.81;;;10.64;100.00
22206;BME280;11272;50.104;8.754;2023-04-02T01:48:23;99834.13;;;10.61;100.00
22206;BME280;11272;50.104;8.754;2023-04-02T01:50:53;99837.88;;;10.54;100.00
22206;BME280;11272;50.104;8.754;2023-04-02T01:53:21;99848.63;;;10.51;100.00
22206;BME280;11272;50.104;8.754;2023-04-02T01:55:57;99838.91;;;10.50;100.00
22206;BME280;11272;50.104;8.754;2023-04-02T01:58:26;99853.91;;;10.51;100.00
22206;BME280;11272;50.104;8.754;2023-04-02T02:03:57;99847.81;;;10.47;100.00
22206;BME280;11272;50.104;8.754;2023-04-02T02:06:23;99846.88;;;10.50;100.00
22206;BME280;11272;50.104;8.754;2023-04-02T02:09:34;99852.19;;;10.50;100.00
22206;BME280;11272;50.104;8.754;2023-04-02T02:12:01;99860.09;;;10.51;100.00
22206;BME280;11272;50.104;8.754;2023-04-02T02:14:50;99861.91;;;10.49;100.00
22206;BME280;11272;50.104;8.754;2023-04-02T02:17:29;99861.88;;;10.51;100.00
22206;BME280;11272;50.104;8.754;2023-04-02T02:20:00;99859.22;;;10.51;100.00
22206;BME280;11272;50.104;8.754;2023-04-02T02:22:30;99861.06;;;10.49;100.00
22206;BME280;11272;50.104;8.754;2023-04-02T02:24:59;99865.47;;;10.48;100.00
22206;BME280;11272;50.104;8.754;2023-04-02T02:30:32;99871.03;;;10.41;100.00
22206;BME280;11272;50.104;8.754;2023-04-02T02:33:30;99881.66;;;10.41;100.00
22206;BME280;11272;50.104;8.754;2023-04-02T02:36:20;99886.97;;;10.41;100.00
22206;BME280;11272;50.104;8.754;2023-04-02T02:38:57;99891.44;;;10.39;100.00
22206;BME280;11272;50.104;8.754;2023-04-02T02:41:45;99896.75;;;10.39;100.00
22206;BME280;11272;50.104;8.754;2023-04-02T02:44:24;99896.75;;;10.39;100.00
22206;BME280;11272;50.104;8.754;2023-04-02T02:47:01;99905.63;;;10.38;100.00
22206;BME280;11272;50.104;8.754;2023-04-02T02:49:31;99902.16;;;10.36;100.00
22206;BME280;11272;50.104;8.754;2023-04-02T02:54:57;99905.78;;;10.32;100.00
22206;BME280;11272;50.104;8.754;2023-04-02T02:57:31;99913.72;;;10.33;100.00
22206;BME280;11272;50.104;8.754;2023-04-02T03:00:00;99919.94;;;10.32;100.00
22206;BME280;11272;50.104;8.754;2023-04-02T03:02:28;99917.28;;;10.32;100.00
22206;BME280;11272;50.104;8.754;2023-04-02T03:04:56;99922.66;;;10.31;100.00
22206;BME280;11272;50.104;8.754;2023-04-02T03:07:26;99922.66;;;10.31;100.00
22206;BME280;11272;50.104;8.754;2023-04-02T03:12:34;99927.03;;;10.32;100.00
22206;BME280;11272;50.104;8.754;2023-04-02T03:18:46;99939.38;;;10.33;100.00
22206;BME280;11272;50.104;8.754;2023-04-02T03:20:56;99938.47;;;10.34;100.00
22206;BME280;11272;50.104;8.754;2023-04-02T03:23:31;99935.81;;;10.34;100.00
22206;BME280;11272;50.104;8.754;2023-04-02T03:28:59;99954.28;;;10.37;100.00
22206;BME280;11272;50.104;8.754;2023-04-02T03:31:33;99951.59;;;10.38;99.95
22206;BME280;11272;50.104;8.754;2023-04-02T03:34:07;99963.06;;;10.40;100.00
22206;BME280;11272;50.104;8.754;2023-04-02T03:36:42;99972.69;;;10.43;99.87
22206;BME280;11272;50.104;8.754;2023-04-02T03:39:25;99960.31;;;10.43;100.00
22206;BME280;11272;50.104;8.754;2023-04-02T03:42:04;99972.66;;;10.44;100.00
22206;BME280;11272;50.104;8.754;2023-04-02T03:44:43;99977.03;;;10.47;100.00
22206;BME280;11272;50.104;8.754;2023-04-02T03:47:16;99982.25;;;10.50;99.86
22206;BME280;11272;50.104;8.754;2023-04-02T03:52:47;99988.41;;;10.52;99.68
22206;BME280;11272;50.104;8.754;2023-04-02T03:55:19;99989.25;;;10.52;99.26
22206;BME280;11272;50.104;8.754;2023-04-02T04:00:38;99984.81;;;10.53;99.30
22206;BME280;11272;50.104;8.754;2023-04-02T04:03:15;99999.84;;;10.52;99.19
22206;BME280;11272;50.104;8.754;2023-04-02T04:05:48;99997.16;;;10.54;99.04
22206;BME280;11272;50.104;8.754;2023-04-02T04:08:19;99998.91;;;10.55;99.02
22206;BME280;11272;50.104;8.754;2023-04-02T04:10:50;100013.06;;;10.55;99.08
22206;BME280;11272;50.104;8.754;2023-04-02T04:13:21;100014.84;;;10.55;99.15
22206;BME280;11272;50.104;8.754;2023-04-02T04:15:54;100014.84;;;10.55;98.94
22206;BME280;11272;50.104;8.754;2023-04-02T04:18:46;100028.97;;;10.57;98.99
22206;BME280;11272;50.104;8.754;2023-04-02T04:21:25;100028.09;;;10.57;98.73
22206;BME280;11272;50.104;8.754;2023-04-02T04:24:11;100031.69;;;10.54;98.31
22206;BME280;11272;50.104;8.754;2023-04-02T04:34:47;100041.34;;;10.57;98.36
22206;BME280;11272;50.104;8.754;2023-04-02T04:37:23;100049.25;;;10.58;98.03
22206;BME280;11272;50.104;8.754;2023-04-02T04:40:15;100054.56;;;10.58;97.82
22206;BME280;11272;50.104;8.754;2023-04-02T04:42:44;100054.53;;;10.60;97.96
22206;BME280;11272;50.104;8.754;2023-04-02T04:45:26;100058.91;;;10.62;97.77
22206;BME280;11272;50.104;8.754;2023-04-02T04:47:59;100064.22;;;10.62;98.00
22206;BME280;11272;50.104;8.754;2023-04-02T04:50:35;100071.25;;;10.63;97.43
22206;BME280;11272;50.104;8.754;2023-04-02T04:53:06;100076.56;;;10.63;97.72
22206;BME280;11272;50.104;8.754;2023-04-02T04:55:42;100073.00;;;10.64;97.70
22206;BME280;11272;50.104;8.754;2023-04-02T04:58:18;100083.56;;;10.66;97.28
22206;BME280;11272;50.104;8.754;2023-04-02T05:06:04;100100.38;;;10.66;97.05
22206;BME280;11272;50.104;8.754;2023-04-02T05:08:35;100094.22;;;10.64;96.85
22206;BME280;11272;50.104;8.754;2023-04-02T05:11:14;100098.72;;;10.62;96.98
22206;BME280;11272;50.104;8.754;2023-04-02T05:13:53;100099.53;;;10.64;97.33
22206;BME280;11272;50.104;8.754;2023-04-02T05:16:26;100106.59;;;10.65;97.09
22206;BME280;11272;50.104;8.754;2023-04-02T05:19:15;100116.31;;;10.66;97.07
22206;BME280;11272;50.104;8.754;2023-04-02T05:21:47;100113.56;;;10.69;97.12
22206;BME280;11272;50.104;8.754;2023-04-02T05:27:17;100131.19;;;10.73;97.11
22206;BME280;11272;50.104;8.754;2023-04-02T05:29:50;100127.56;;;10.76;96.97
22206;BME280;11272;50.104;8.754;2023-04-02T05:32:23;100129.28;;;10.78;96.68
22206;BME280;11272;50.104;8.754;2023-04-02T05:34:53;100131.00;;;10.79;96.46
22206;BME280;11272;50.104;8.754;2023-04-02T05:37:23;100134.50;;;10.81;96.89
22206;BME280;11272;50.104;8.754;2023-04-02T05:39:54;100134.41;;;10.84;96.81
22206;BME280;11272;50.104;8.754;2023-04-02T05:42:24;100138.75;;;10.87;96.58
22206;BME280;11272;50.104;8.754;2023-04-02T05:45:22;100147.59;;;10.87;96.42
22206;BME280;11272;50.104;8.754;2023-04-02T05:47:53;100151.91;;;10.91;96.81
22206;BME280;11272;50.104;8.754;2023-04-02T05:50:36;100157.16;;;10.94;96.43
22206;BME280;11272;50.104;8.754;2023-04-02T05:53:33;100155.31;;;10.96;96.26
22206;BME280;11272;50.104;8.754;2023-04-02T05:58:36;100165.88;;;11.00;95.86
22206;BME280;11272;50.104;8.754;2023-04-02T06:03:56;100172.81;;;11.05;95.99
22206;BME280;11272;50.104;8.754;2023-04-02T06:09:12;100181.53;;;11.10;95.49
22206;BME280;11272;50.104;8.754;2023-04-02T06:11:43;100184.09;;;11.12;95.32
22206;BME280;11272;50.104;8.754;2023-04-02T06:14:15;100193.03;;;11.11;95.24
22206;BME280;11272;50.104;8.754;2023-04-02T06:16:43;100196.66;;;11.07;94.63
22206;BME280;11272;50.104;8.754;2023-04-02T06:19:17;100202.97;;;11.03;94.51
22206;BME280;11272;50.104;8.754;2023-04-02T06:21:46;100206.47;;;11.05;94.61
22206;BME280;11272;50.104;8.754;2023-04-02T06:24:18;100210.88;;;11.06;94.57
22206;BME280;11272;50.104;8.754;2023-04-02T06:26:51;100217.16;;;11.02;94.52
22206;BME280;11272;50.104;8.754;2023-04-02T06:29:31;100218.06;;;11.01;94.80
22206;BME280;11272;50.104;8.754;2023-04-02T06:32:05;100226.88;;;11.03;94.78
22206;BME280;11272;50.104;8.754;2023-04-02T06:34:32;100225.09;;;11.03;95.10
22206;BME280;11272;50.104;8.754;2023-04-02T06:37:28;100243.97;;;10.92;94.24
22206;BME280;11272;50.104;8.754;2023-04-02T06:46:14;100267.56;;;10.34;95.89
22206;BME280;11272;50.104;8.754;2023-04-02T06:49:00;100273.88;;;10.30;96.66
22206;BME280;11272;50.104;8.754;2023-04-02T06:51:30;100281.06;;;10.25;97.29
22206;BME280;11272;50.104;8.754;2023-04-02T06:53:58;100286.38;;;10.23;97.83
22206;BME280;11272;50.104;8.754;2023-04-02T06:56:45;100290.03;;;10.19;97.75
22206;BME280;11272;50.104;8.754;2023-04-02T06:59:17;100294.53;;;10.14;98.54
22206;BME280;11272;50.104;8.754;2023-04-02T07:01:50;100312.31;;;10.09;98.37
22206;BME280;11272;50.104;8.754;2023-04-02T07:04:18;100312.44;;;10.03;98.73
22206;BME280;11272;50.104;8.754;2023-04-02T07:06:46;100332.84;;;9.99;99.20
22206;BME280;11272;50.104;8.754;2023-04-02T07:09:14;100335.66;;;9.93;99.05
22206;BME280;11272;50.104;8.754;2023-04-02T07:11:44;100342.94;;;9.82;99.26
22206;BME280;11272;50.104;8.754;2023-04-02T07:14:11;100350.03;;;9.82;99.74
22206;BME280;11272;50.104;8.754;2023-04-02T07:16:38;100356.19;;;9.82;100.00
22206;BME280;11272;50.104;8.754;2023-04-02T07:19:04;100369.50;;;9.79;100.00
22206;BME280;11272;50.104;8.754;2023-04-02T07:21:32;100374.88;;;9.76;100.00
22206;BME280;11272;50.104;8.754;2023-04-02T07:23:58;100375.84;;;9.72;100.00
22206;BME280;11272;50.104;8.754;2023-04-02T07:26:25;100382.06;;;9.71;100.00
22206;BME280;11272;50.104;8.754;2023-04-02T07:28:55;100390.03;;;9.69;100.00
22206;BME280;11272;50.104;8.754;2023-04-02T07:31:28;100394.44;;;9.69;100.00
22206;BME280;11272;50.104;8.754;2023-04-02T07:33:55;100399.81;;;9.66;100.00
22206;BME280;11272;50.104;8.754;2023-04-02T07:36:25;100404.28;;;9.62;100.00
22206;BME280;11272;50.104;8.754;2023-04-02T07:38:51;100411.44;;;9.57;100.00
22206;BME280;11272;50.104;8.754;2023-04-02T07:41:18;100423.00;;;9.53;100.00
22206;BME280;11272;50.104;8.754;2023-04-02T07:43:44;100428.44;;;9.46;100.00
22206;BME280;11272;50.104;8.754;2023-04-02T07:46:10;100433.06;;;9.35;100.00
22206;BME280;11272;50.104;8.754;2023-04-02T07:48:38;100442.84;;;9.29;100.00
22206;BME280;11272;50.104;8.754;2023-04-02T07:51:05;100443.00;;;9.20;100.00
22206;BME280;11272;50.104;8.754;2023-04-02T07:53:38;100451.03;;;9.14;100.00
22206;BME280;11272;50.104;8.754;2023-04-02T07:56:04;100458.94;;;9.17;100.00
22206;BME280;11272;50.104;8.754;2023-04-02T07:58:31;100463.34;;;9.18;100.00
22206;BME280;11272;50.104;8.754;2023-04-02T08:00:58;100468.69;;;9.15;100.00
22206;BME280;11272;50.104;8.754;2023-04-02T08:03:24;100477.50;;;9.17;100.00
22206;BME280;11272;50.104;8.754;2023-04-02T08:05:58;100481.06;;;9.15;100.00
22206;BME280;11272;50.104;8.754;2023-04-02T08:08:27;100482.75;;;9.19;100.00
22206;BME280;11272;50.104;8.754;2023-04-02T08:10:53;100487.03;;;9.29;100.00
22206;BME280;11272;50.104;8.754;2023-04-02T08:13:19;100496.69;;;9.33;100.00
22206;BME280;11272;50.104;8.754;2023-04-02T08:15:46;100501.97;;;9.35;100.00
22206;BME280;11272;50.104;8.754;2023-04-02T08:18:12;100504.56;;;9.36;100.00
22206;BME280;11272;50.104;8.754;2023-04-02T08:20:37;100511.63;;;9.37;100.00
22206;BME280;11272;50.104;8.754;2023-04-02T08:23:04;100517.81;;;9.38;100.00
22206;BME280;11272;50.104;8.754;2023-04-02T08:25:31;100518.72;;;9.35;100.00
22206;BME280;11272;50.104;8.754;2023-04-02T08:27:56;100532.03;;;9.30;100.00
22206;BME280;11272;50.104;8.754;2023-04-02T08:30:22;100530.34;;;9.25;100.00
22206;BME280;11272;50.104;8.754;2023-04-02T08:32:47;100535.56;;;9.29;100.00
22206;BME280;11272;50.104;8.754;2023-04-02T08:35:15;100539.03;;;9.36;100.00
22206;BME280;11272;50.104;8.754;2023-04-02T08:37:42;100544.28;;;9.39;100.00
22206;BME280;11272;50.104;8.754;2023-04-02T08:40:17;100555.84;;;9.34;100.00
22206;BME280;11272;50.104;8.754;2023-04-02T08:43:04;100560.25;;;9.35;100.00
22206;BME280;11272;50.104;8.754;2023-04-02T08:45:58;100563.00;;;9.28;100.00
22206;BME280;11272;50.104;8.754;2023-04-02T08:48:26;100571.84;;;9.27;100.00
22206;BME280;11272;50.104;8.754;2023-04-02T08:50:52;100580.53;;;9.37;100.00
22206;BME280;11272;50.104;8.754;2023-04-02T08:53:28;100581.41;;;9.38;100.00
22206;BME280;11272;50.104;8.754;2023-04-02T08:56:04;100590.09;;;9.49;100.00
22206;BME280;11272;50.104;8.754;2023-04-02T09:01:02;100596.25;;;9.49;100.00
22206;BME280;11272;50.104;8.754;2023-04-02T09:03:38;100599.88;;;9.44;100.00
22206;BME280;11272;50.104;8.754;2023-04-02T09:06:09;100607.84;;;9.42;100.00
22206;BME280;11272;50.104;8.754;2023-04-02T09:08:38;100618.44;;;9.41;100.00
22206;BME280;11272;50.104;8.754;2023-04-02T09:11:33;100620.13;;;9.48;100.00
22206;BME280;11272;50.104;8.754;2023-04-02T09:14:04;100623.72;;;9.44;100.00
22206;BME280;11272;50.104;8.754;2023-04-02T09:16:53;100625.59;;;9.36;100.00
22206;BME280;11272;50.104;8.754;2023-04-02T09:19:36;100637.94;;;9.40;100.00
22206;BME280;11272;50.104;8.754;2023-04-02T09:22:07;100637.13;;;9.35;100.00
22206;BME280;11272;50.104;8.754;2023-04-02T09:24:34;100640.59;;;9.37;100.00
22206;BME280;11272;50.104;8.754;2023-04-02T09:27:02;100641.34;;;9.48;100.00
22206;BME280;11272;50.104;8.754;2023-04-02T09:29:35;100655.34;;;9.57;100.00
22206;BME280;11272;50.104;8.754;2023-04-02T09:34:45;100663.94;;;9.75;100.00
22206;BME280;11272;50.104;8.754;2023-04-02T09:37:19;100668.28;;;9.80;100.00
22206;BME280;11272;50.104;8.754;2023-04-02T09:39:47;100670.88;;;9.83;100.00
22206;BME280;11272;50.104;8.754;2023-04-02T09:42:33;100673.44;;;9.89;100.00
22206;BME280;11272;50.104;8.754;2023-04-02T09:45:22;100688.44;;;9.92;100.00
22206;BME280;11272;50.104;8.754;2023-04-02T09:47:49;100692.78;;;9.97;100.00
22206;BME280;11272;50.104;8.754;2023-04-02T09:50:24;100691.03;;;9.96;100.00
22206;BME280;11272;50.104;8.754;2023-04-02T09:52:52;100698.03;;;10.00;100.00
22206;BME280;11272;50.104;8.754;2023-04-02T09:55:24;100694.41;;;10.07;100.00
22206;BME280;11272;50.104;8.754;2023-04-02T09:58:09;100700.50;;;10.12;100.00
22206;BME280;11272;50.104;8.754;2023-04-02T10:00:35;100708.53;;;10.08;100.00
22206;BME280;11272;50.104;8.754;2023-04-02T10:03:25;100706.84;;;10.04;100.00
22206;BME280;11272;50.104;8.754;2023-04-02T10:06:08;100714.00;;;9.97;100.00
22206;BME280;11272;50.104;8.754;2023-04-02T10:08:35;100714.91;;;9.98;100.00
22206;BME280;11272;50.104;8.754;2023-04-02T10:11:15;100725.47;;;9.99;100.00
22206;BME280;11272;50.104;8.754;2023-04-02T10:13:50;100730.75;;;9.99;100.00
22206;BME280;11272;50.104;8.754;2023-04-02T10:16:33;100731.53;;;10.07;100.00
22206;BME280;11272;50.104;8.754;2023-04-02T10:19:13;100740.31;;;10.12;100.00
22206;BME280;11272;50.104;8.754;2023-04-02T10:21:44;100742.06;;;10.13;100.00
22206;BME280;11272;50.104;8.754;2023-04-02T10:24:14;100752.66;;;10.15;100.00
22206;BME280;11272;50.104;8.754;2023-04-02T10:26:47;100763.31;;;10.13;100.00
22206;BME280;11272;50.104;8.754;2023-04-02T10:32:17;100767.09;;;9.94;100.00
22206;BME280;11272;50.104;8.754;2023-04-02T10:37:54;100785.16;;;9.66;100.00
22206;BME280;11272;50.104;8.754;2023-04-02T10:46:12;100795.84;;;9.60;100.00
22206;BME280;11272;50.104;8.754;2023-04-02T10:48:55;100794.81;;;9.72;100.00
22206;BME280;11272;50.104;8.754;2023-04-02T10:54:38;100796.53;;;9.75;100.00
22206;BME280;11272;50.104;8.754;2023-04-02T10:57:18;100811.56;;;9.74;100.00
22206;BME280;11272;50.104;8.754;2023-04-02T10:59:50;100816.88;;;9.74;99.25
22206;BME280;11272;50.104;8.754;2023-04-02T11:02:45;100812.44;;;9.73;99.27
22206;BME280;11272;50.104;8.754;2023-04-02T11:05:33;100816.78;;;9.82;99.34
22206;BME280;11272;50.104;8.754;2023-04-02T11:08:13;100819.41;;;9.83;98.69
22206;BME280;11272;50.104;8.754;2023-04-02T11:10:45;100827.28;;;9.89;99.51
22206;BME280;11272;50.104;8.754;2023-04-02T11:13:14;100836.03;;;9.97;99.09
22206;BME280;11272;50.104;8.754;2023-04-02T11:15:43;100838.72;;;9.94;97.76
22206;BME280;11272;50.104;8.754;2023-04-02T11:18:24;100838.75;;;9.91;96.67
22206;BME280;11272;50.104;8.754;2023-04-02T11:21:03;100835.28;;;9.86;96.58
22206;BME280;11272;50.104;8.754;2023-04-02T11:23:35;100840.63;;;9.83;96.29
22206;BME280;11272;50.104;8.754;2023-04-02T11:29:21;100856.59;;;9.80;95.22
22206;BME280;11272;50.104;8.754;2023-04-02T11:31:50;100868.94;;;9.83;95.32
22206;BME280;11272;50.104;8.754;2023-04-02T11:42:39;100883.09;;;9.80;93.79
22206;BME280;11272;50.104;8.754;2023-04-02T11:50:36;100885.75;;;9.82;91.94
22206;BME280;11272;50.104;8.754;2023-04-02T11:55:36;100904.22;;;9.89;91.18
22206;BME280;11272;50.104;8.754;2023-04-02T12:09:35;100926.38;;;9.85;85.50
22206;BME280;11272;50.104;8.754;2023-04-02T12:12:25;100928.19;;;9.80;85.85
22206;BME280;11272;50.104;8.754;2023-04-02T12:14:55;100930.88;;;9.77;84.92
22206;BME280;11272;50.104;8.754;2023-04-02T12:17:31;100931.72;;;9.81;84.50
22206;BME280;11272;50.104;8.754;2023-04-02T12:22:31;100939.69;;;9.78;82.53
22206;BME280;11272;50.104;8.754;2023-04-02T12:24:59;100940.63;;;9.73;82.21
22206;BME280;11272;50.104;8.754;2023-04-02T12:27:27;100950.34;;;9.76;81.52
22206;BME280;11272;50.104;8.754;2023-04-02T12:29:58;100953.00;;;9.75;81.21
22206;BME280;11272;50.104;8.754;2023-04-02T12:32:35;100954.72;;;9.80;80.42
22206;BME280;11272;50.104;8.754;2023-04-02T12:35:02;100960.97;;;9.73;79.87
22206;BME280;11272;50.104;8.754;2023-04-02T12:37:29;100973.38;;;9.71;79.29
22206;BME280;11272;50.104;8.754;2023-04-02T12:39:58;100968.91;;;9.75;79.19
22206;BME280;11272;50.104;8.754;2023-04-02T12:42:34;100973.38;;;9.68;78.44
22206;BME280;11272;50.104;8.754;2023-04-02T12:45:02;100984.03;;;9.65;78.91
22206;BME280;11272;50.104;8.754;2023-04-02T12:47:28;100987.63;;;9.61;77.72
22206;BME280;11272;50.104;8.754;2023-04-02T12:49:56;100992.91;;;9.61;78.98
22206;BME280;11272;50.104;8.754;2023-04-02T12:52:25;100999.94;;;9.66;77.97
22206;BME280;11272;50.104;8.754;2023-04-02T12:54:55;101003.41;;;9.73;77.78
22206;BME280;11272;50.104;8.754;2023-04-02T13:02:30;101013.28;;;9.51;76.74
22206;BME280;11272;50.104;8.754;2023-04-02T13:04:58;101014.22;;;9.49;76.84
22206;BME280;11272;50.104;8.754;2023-04-02T13:07:29;101016.91;;;9.43;76.11
22206;BME280;11272;50.104;8.754;2023-04-02T13:10:01;101019.63;;;9.34;76.49
22206;BME280;11272;50.104;8.754;2023-04-02T13:12:34;101012.53;;;9.36;76.87
22206;BME280;11272;50.104;8.754;2023-04-02T13:15:04;101014.28;;;9.40;76.39
22206;BME280;11272;50.104;8.754;2023-04-02T13:17:45;101027.50;;;9.43;75.86
22206;BME280;11272;50.104;8.754;2023-04-02T13:20:34;101028.41;;;9.40;76.14
22206;BME280;11272;50.104;8.754;2023-04-02T13:23:47;101024.06;;;9.35;75.79
22206;BME280;11272;50.104;8.754;2023-04-02T13:25:49;101035.56;;;9.24;75.99
22206;BME280;11272;50.104;8.754;2023-04-02T13:28:15;101040.06;;;9.16;75.76
22206;BME280;11272;50.104;8.754;2023-04-02T13:30:40;101039.19;;;9.11;75.76
22206;BME280;11272;50.104;8.754;2023-04-02T13:33:06;101046.25;;;9.12;75.80
22206;BME280;11272;50.104;8.754;2023-04-02T13:35:32;101045.38;;;9.09;75.43
22206;BME280;11272;50.104;8.754;2023-04-02T13:37:57;101048.03;;;9.13;75.81
22206;BME280;11272;50.104;8.754;2023-04-02T13:40:23;101053.31;;;9.18;76.05
22206;BME280;11272;50.104;8.754;2023-04-02T13:42:49;101058.56;;;9.21;75.62
22206;BME280;11272;50.104;8.754;2023-04-02T13:45:26;101057.72;;;9.16;74.68
22206;BME280;11272;50.104;8.754;2023-04-02T13:47:53;101055.94;;;9.16;74.97
22206;BME280;11272;50.104;8.754;2023-04-02T13:50:21;101056.84;;;9.15;74.43
22206;BME280;11272;50.104;8.754;2023-04-02T13:52:49;101069.19;;;9.16;74.80
22206;BME280;11272;50.104;8.754;2023-04-02T13:55:18;101070.09;;;9.17;74.84
22206;BME280;11272;50.104;8.754;2023-04-02T13:57:44;101075.38;;;9.17;74.66
22206;BME280;11272;50.104;8.754;2023-04-02T14:00:10;101071.84;;;9.15;73.77
22206;BME280;11272;50.104;8.754;2023-04-02T14:02:40;101081.56;;;9.14;73.96
22206;BME280;11272;50.104;8.754;2023-04-02T14:05:34;101079.81;;;9.13;73.51
22206;BME280;11272;50.104;8.754;2023-04-02T14:08:21;101093.06;;;9.13;73.85
22206;BME280;11272;50.104;8.754;2023-04-02T14:19:53;101110.81;;;8.95;72.32
22206;BME280;11272;50.104;8.754;2023-04-02T14:22:42;101116.13;;;8.87;72.44
22206;BME280;11272;50.104;8.754;2023-04-02T14:25:27;101124.97;;;8.84;72.60
22206;BME280;11272;50.104;8.754;2023-04-02T14:28:22;101126.72;;;8.82;72.77
22206;BME280;11272;50.104;8.754;2023-04-02T14:31:09;101126.75;;;8.81;72.23
22206;BME280;11272;50.104;8.754;2023-04-02T14:33:50;101130.28;;;8.77;72.59
22206;BME280;11272;50.104;8.754;2023-04-02T14:37:27;101132.06;;;8.69;72.47
22206;BME280;11272;50.104;8.754;2023-04-02T14:42:14;101143.53;;;8.72;72.34
22206;BME280;11272;50.104;8.754;2023-04-02T14:44:47;101141.75;;;8.73;72.35
22206;BME280;11272;50.104;8.754;2023-04-02T14:49:44;101144.44;;;8.64;72.16
22206;BME280;11272;50.104;8.754;2023-04-02T14:52:19;101151.50;;;8.62;71.96
22206;BME280;11272;50.104;8.754;2023-04-02T14:54:54;101162.97;;;8.67;71.70
22206;BME280;11272;50.104;8.754;2023-04-02T14:57:46;101163.84;;;8.73;71.93
22206;BME280;11272;50.104;8.754;2023-04-02T15:03:21;101177.09;;;8.75;71.36
22206;BME280;11272;50.104;8.754;2023-04-02T15:05:53;101177.97;;;8.68;71.49
22206;BME280;11272;50.104;8.754;2023-04-02T15:08:34;101177.97;;;8.62;71.40
22206;BME280;11272;50.104;8.754;2023-04-02T15:11:11;101196.50;;;8.62;71.35
22206;BME280;11272;50.104;8.754;2023-04-02T15:13:47;101192.13;;;8.55;71.13
22206;BME280;11272;50.104;8.754;2023-04-02T15:16:22;101200.06;;;8.49;70.83
22206;BME280;11272;50.104;8.754;2023-04-02T15:18:58;101201.81;;;8.37;70.46
22206;BME280;11272;50.104;8.754;2023-04-02T15:35:35;101206.19;;;8.14;70.36
22206;BME280;11272;50.104;8.754;2023-04-02T15:38:19;101204.41;;;8.15;70.36
22206;BME280;11272;50.104;8.754;2023-04-02T15:41:00;101211.50;;;8.22;70.25
22206;BME280;11272;50.104;8.754;2023-04-02T15:43:34;101205.31;;;8.27;69.90
22206;BME280;11272;50.104;8.754;2023-04-02T15:52:16;101223.81;;;8.11;69.97
22206;BME280;11272;50.104;8.754;2023-04-02T16:00:25;101241.47;;;8.16;68.20
22206;BME280;11272;50.104;8.754;2023-04-02T16:03:04;101244.97;;;8.09;68.12
22206;BME280;11272;50.104;8.754;2023-04-02T16:05:42;101254.66;;;7.95;67.73
22206;BME280;11272;50.104;8.754;2023-04-02T16:08:18;101254.66;;;7.95;67.78
22206;BME280;11272;50.104;8.754;2023-04-02T16:10:47;101259.94;;;7.98;67.69
22206;BME280;11272;50.104;8.754;2023-04-02T16:15:57;101274.94;;;8.02;67.20
22206;BME280;11272;50.104;8.754;2023-04-02T16:18:35;101268.75;;;7.98;66.91
22206;BME280;11272;50.104;8.754;2023-04-02T16:21:02;101267.84;;;7.96;67.34
22206;BME280;11272;50.104;8.754;2023-04-02T16:23:33;101281.97;;;7.97;67.03
22206;BME280;11272;50.104;8.754;2023-04-02T16:34:56;101288.94;;;7.77;65.62
22206;BME280;11272;50.104;8.754;2023-04-02T16:40:37;101298.69;;;7.87;65.61
22206;BME280;11272;50.104;8.754;2023-04-02T16:43:26;101310.16;;;7.92;65.89
22206;BME280;11272;50.104;8.754;2023-04-02T16:51:23;101319.84;;;7.96;66.03
22206;BME280;11272;50.104;8.754;2023-04-02T16:54:18;101332.19;;;7.89;65.60